Time;durP1;ratioP1;P1;durP2;ratioP2;P2;SDS_P1;SDS_P2;PMS_P1;PMS_P2;Temp;Humidity;BMP_temperature;BMP_pressure;BME280_temperature;BME280_humidity;BME280_pressure;Samples;Min_cycle;Max_cycle;Signal;HPM_P1;HPM_P2
2024/01/25 00:01:45;;;;;;;9.98;2.08;;;;;;;;;;5080154;28;20029;-78
2024/01/25 00:04:12;;;;;;;14.20;2.22;;;;;;;;;;5080223;28;20044;-79
2024/01/25 00:06:38;;;;;;;11.52;2.35;;;;;;;;;;5090243;28;20104;-77
2024/01/25 00:09:04;;;;;;;11.15;1.60;;;;;;;;;;5086548;28;20020;-77
2024/01/25 00:11:31;;;;;;;14.38;2.40;;;;;;;;;;5089168;28;20011;-77
2024/01/25 00:13:58;;;;;;;12.13;2.40;;;;;;;;;;5092801;28;20020;-76
2024/01/25 00:16:24;;;;;;;14.25;2.55;;;;;;;;;;5092373;28;20008;-76
2024/01/25 00:18:50;;;;;;;13.35;2.25;;;;;;;;;;5085521;28;20029;-77
2024/01/25 00:21:17;;;;;;;12.00;2.20;;;;;;;;;;5085177;28;20037;-77
2024/01/25 00:23:43;;;;;;;7.40;2.08;;;;;;;;;;5085649;28;20097;-76
2024/01/25 00:26:09;;;;;;;11.55;1.80;;;;;;;;;;5083688;28;20032;-76
2024/01/25 00:28:35;;;;;;;7.85;1.50;;;;;;;;;;5085635;28;20044;-77
2024/01/25 00:31:01;;;;;;;8.13;1.95;;;;;;;;;;5089017;28;20008;-77
2024/01/25 00:33:27;;;;;;;8.05;1.67;;;;;;;;;;5088945;28;20044;-78
2024/01/25 00:35:54;;;;;;;11.25;2.05;;;;;;;;;;5086921;28;20036;-77
2024/01/25 00:38:23;;;;;;;9.50;1.73;;;;;;;;;;5088243;28;20029;-77
2024/01/25 00:40:49;;;;;;;7.75;1.60;;;;;;;;;;5075737;28;20115;-77
2024/01/25 00:43:15;;;;;;;6.43;1.60;;;;;;;;;;5073049;28;20017;-77
2024/01/25 00:45:42;;;;;;;4.50;1.40;;;;;;;;;;5070739;28;20020;-78
2024/01/25 00:48:08;;;;;;;5.75;1.45;;;;;;;;;;5074389;28;20024;-79
2024/01/25 00:50:34;;;;;;;8.70;2.05;;;;;;;;;;5071600;28;20017;-79
2024/01/25 00:53:01;;;;;;;12.70;1.70;;;;;;;;;;5085160;28;20012;-76
2024/01/25 00:55:27;;;;;;;7.75;1.48;;;;;;;;;;5088537;28;20027;-76
2024/01/25 00:57:54;;;;;;;9.30;1.63;;;;;;;;;;5091350;28;20027;-76
2024/01/25 01:00:21;;;;;;;9.75;1.75;;;;;;;;;;5083416;28;20021;-78
2024/01/25 01:02:47;;;;;;;7.32;1.45;;;;;;;;;;5082608;28;20029;-77
2024/01/25 01:05:14;;;;;;;9.65;1.85;;;;;;;;;;5085886;28;20019;-78
2024/01/25 01:07:41;;;;;;;11.77;2.00;;;;;;;;;;5089378;28;20040;-77
2024/01/25 01:10:08;;;;;;;7.68;1.67;;;;;;;;;;5087262;28;20009;-77
2024/01/25 01:12:35;;;;;;;6.07;1.58;;;;;;;;;;5079691;28;20120;-78
2024/01/25 01:15:01;;;;;;;14.07;2.35;;;;;;;;;;5072303;28;20099;-79
2024/01/25 01:17:27;;;;;;;5.30;1.33;;;;;;;;;;5080405;28;20428;-78
2024/01/25 01:19:53;;;;;;;10.10;2.17;;;;;;;;;;5071978;28;20083;-77
2024/01/25 01:22:23;;;;;;;16.08;2.38;;;;;;;;;;5073984;28;20036;-77
2024/01/25 01:24:49;;;;;;;13.40;2.47;;;;;;;;;;5068080;28;20025;-78
2024/01/25 01:27:15;;;;;;;10.52;2.47;;;;;;;;;;5079416;28;20005;-77
2024/01/25 01:29:41;;;;;;;32.28;4.00;;;;;;;;;;5063566;28;20032;-78
2024/01/25 01:32:08;;;;;;;13.23;2.30;;;;;;;;;;5076608;28;20017;-78
2024/01/25 01:34:34;;;;;;;13.00;1.90;;;;;;;;;;5081183;28;20403;-77
2024/01/25 01:37:00;;;;;;;11.70;1.92;;;;;;;;;;5072173;28;20460;-78
2024/01/25 01:39:27;;;;;;;12.98;1.98;;;;;;;;;;5077680;28;20051;-78
2024/01/25 01:41:53;;;;;;;11.05;1.92;;;;;;;;;;5080341;28;20057;-76
2024/01/25 01:44:20;;;;;;;4.28;1.48;;;;;;;;;;5080500;28;20033;-78
2024/01/25 01:46:47;;;;;;;12.45;2.42;;;;;;;;;;5065870;28;20036;-77
2024/01/25 01:49:14;;;;;;;7.95;1.77;;;;;;;;;;5079553;28;20020;-78
2024/01/25 01:51:43;;;;;;;8.13;1.40;;;;;;;;;;5077287;28;20021;-77
2024/01/25 01:54:10;;;;;;;10.10;1.80;;;;;;;;;;5081357;28;20025;-78
2024/01/25 01:56:36;;;;;;;10.32;1.90;;;;;;;;;;5079544;28;20024;-78
2024/01/25 01:59:05;;;;;;;12.35;2.03;;;;;;;;;;5071685;28;20497;-77
2024/01/25 02:01:31;;;;;;;10.57;1.90;;;;;;;;;;5085248;28;20024;-77
2024/01/25 02:03:58;;;;;;;13.73;2.92;;;;;;;;;;5082347;28;20039;-78
2024/01/25 02:06:24;;;;;;;12.00;1.88;;;;;;;;;;5086100;28;20043;-78
2024/01/25 02:08:52;;;;;;;9.50;2.30;;;;;;;;;;5087585;28;20102;-77
2024/01/25 02:11:21;;;;;;;11.38;1.55;;;;;;;;;;5087056;28;20084;-78
2024/01/25 02:13:48;;;;;;;10.68;2.22;;;;;;;;;;5079414;28;20387;-77
2024/01/25 02:16:20;;;;;;;5.18;1.35;;;;;;;;;;5076660;28;20025;-77
2024/01/25 02:18:47;;;;;;;5.95;1.30;;;;;;;;;;5076440;28;20113;-78
2024/01/25 02:21:13;;;;;;;8.18;1.88;;;;;;;;;;5077367;28;20103;-77
2024/01/25 02:23:39;;;;;;;6.35;1.75;;;;;;;;;;5071316;28;20032;-77
2024/01/25 02:26:05;;;;;;;7.60;1.58;;;;;;;;;;5077077;28;20036;-78
2024/01/25 02:28:31;;;;;;;5.95;1.52;;;;;;;;;;5078303;28;20105;-77
2024/01/25 02:30:58;;;;;;;7.50;1.42;;;;;;;;;;5081804;28;20040;-77
2024/01/25 02:33:24;;;;;;;8.27;1.45;;;;;;;;;;5079993;28;20158;-78
2024/01/25 02:35:50;;;;;;;8.27;1.70;;;;;;;;;;5087162;28;20112;-77
2024/01/25 02:38:16;;;;;;;11.23;2.00;;;;;;;;;;5090066;28;20042;-77
2024/01/25 02:40:42;;;;;;;7.88;1.95;;;;;;;;;;5096627;28;20012;-77
2024/01/25 02:43:09;;;;;;;7.57;2.30;;;;;;;;;;5068590;28;20039;-77
2024/01/25 02:45:35;;;;;;;11.70;1.75;;;;;;;;;;5083016;28;20090;-77
2024/01/25 02:48:04;;;;;;;9.70;2.28;;;;;;;;;;5092782;27;20073;-76
2024/01/25 02:50:30;;;;;;;8.32;1.50;;;;;;;;;;5087765;28;20024;-77
2024/01/25 02:52:57;;;;;;;8.48;1.67;;;;;;;;;;5094099;28;20016;-78
2024/01/25 02:55:23;;;;;;;9.02;1.50;;;;;;;;;;5098500;28;20082;-78
2024/01/25 02:57:51;;;;;;;6.47;1.48;;;;;;;;;;5095277;28;20027;-76
2024/01/25 03:00:18;;;;;;;11.30;1.95;;;;;;;;;;5095088;28;20043;-77
2024/01/25 03:02:45;;;;;;;7.40;1.70;;;;;;;;;;5094330;28;20028;-76
2024/01/25 03:05:11;;;;;;;5.80;1.08;;;;;;;;;;5093972;28;20069;-78
2024/01/25 03:07:37;;;;;;;8.57;1.50;;;;;;;;;;5090995;28;20020;-78
2024/01/25 03:10:03;;;;;;;11.82;1.73;;;;;;;;;;5079790;28;20017;-77
2024/01/25 03:12:30;;;;;;;16.67;2.60;;;;;;;;;;5079229;28;20021;-77
2024/01/25 03:14:56;;;;;;;7.82;1.73;;;;;;;;;;5079842;28;20029;-77
2024/01/25 03:17:22;;;;;;;10.32;2.15;;;;;;;;;;5078597;28;20103;-77
2024/01/25 03:19:49;;;;;;;12.73;2.45;;;;;;;;;;5075170;28;20506;-78
2024/01/25 03:22:15;;;;;;;14.35;2.35;;;;;;;;;;5076353;28;20008;-77
2024/01/25 03:24:41;;;;;;;7.28;2.05;;;;;;;;;;5079672;28;20017;-77
2024/01/25 03:27:13;;;;;;;13.10;2.42;;;;;;;;;;5079887;28;20134;-76
2024/01/25 03:29:41;;;;;;;16.27;3.15;;;;;;;;;;5069998;28;20092;-77
2024/01/25 03:32:07;;;;;;;9.15;1.70;;;;;;;;;;5080803;28;20515;-78
2024/01/25 03:34:33;;;;;;;12.98;1.70;;;;;;;;;;5078181;28;20066;-77
2024/01/25 03:37:00;;;;;;;9.35;1.60;;;;;;;;;;5070553;28;20012;-77
2024/01/25 03:39:26;;;;;;;13.98;2.80;;;;;;;;;;5071940;28;20027;-77
2024/01/25 03:41:52;;;;;;;11.68;1.90;;;;;;;;;;5074178;28;20040;-77
2024/01/25 03:44:18;;;;;;;7.90;1.77;;;;;;;;;;5072126;28;20032;-76
2024/01/25 03:46:44;;;;;;;6.47;1.60;;;;;;;;;;5088216;28;20033;-78
2024/01/25 03:49:10;;;;;;;6.13;1.30;;;;;;;;;;5084375;28;20028;-78
2024/01/25 03:51:37;;;;;;;11.05;2.10;;;;;;;;;;5072317;28;20033;-77
2024/01/25 03:54:05;;;;;;;4.57;1.50;;;;;;;;;;5072989;28;20040;-78
2024/01/25 03:56:32;;;;;;;6.28;1.33;;;;;;;;;;5080087;28;20391;-76
2024/01/25 03:58:58;;;;;;;6.93;1.50;;;;;;;;;;5079351;28;20062;-77
2024/01/25 04:01:24;;;;;;;9.32;1.55;;;;;;;;;;5080745;28;20024;-77
2024/01/25 04:03:50;;;;;;;9.13;1.75;;;;;;;;;;5077381;28;20045;-77
2024/01/25 04:06:16;;;;;;;10.95;1.90;;;;;;;;;;5071633;28;20074;-77
2024/01/25 04:08:43;;;;;;;8.32;1.58;;;;;;;;;;5077051;28;20073;-77
2024/01/25 04:11:13;;;;;;;7.15;1.25;;;;;;;;;;5077187;28;20020;-77
2024/01/25 04:13:41;;;;;;;11.15;1.85;;;;;;;;;;5078978;28;20120;-78
2024/01/25 04:16:07;;;;;;;7.97;1.58;;;;;;;;;;5078427;28;20020;-77
2024/01/25 04:18:33;;;;;;;7.50;1.85;;;;;;;;;;5077192;28;20440;-78
2024/01/25 04:21:01;;;;;;;6.78;1.98;;;;;;;;;;5080799;28;20033;-78
2024/01/25 04:23:27;;;;;;;9.05;1.77;;;;;;;;;;5082185;28;20032;-77
2024/01/25 04:25:55;;;;;;;11.35;1.98;;;;;;;;;;5080261;28;20033;-78
2024/01/25 04:31:07;;;;;;;12.00;1.52;;;;;;;;;;5062794;28;20033;-77
2024/01/25 04:33:34;;;;;;;7.57;1.58;;;;;;;;;;5075869;28;20024;-76
2024/01/25 04:36:00;;;;;;;14.20;2.05;;;;;;;;;;5076578;28;20067;-75
2024/01/25 04:38:26;;;;;;;7.13;1.33;;;;;;;;;;5092061;28;20024;-75
2024/01/25 04:40:52;;;;;;;10.00;1.83;;;;;;;;;;5079066;28;20021;-75
2024/01/25 04:43:18;;;;;;;6.47;2.08;;;;;;;;;;5066385;28;20054;-75
2024/01/25 04:45:44;;;;;;;9.43;1.58;;;;;;;;;;5072902;28;20093;-75
2024/01/25 04:48:10;;;;;;;4.75;1.33;;;;;;;;;;5074811;28;20513;-75
2024/01/25 04:50:38;;;;;;;5.63;1.40;;;;;;;;;;5079696;28;20088;-74
2024/01/25 04:53:05;;;;;;;11.48;1.98;;;;;;;;;;5076452;28;20405;-75
2024/01/25 04:55:31;;;;;;;7.20;1.60;;;;;;;;;;5074287;28;20099;-76
2024/01/25 04:57:57;;;;;;;13.00;1.85;;;;;;;;;;5075941;28;20025;-75
2024/01/25 05:00:23;;;;;;;8.77;1.67;;;;;;;;;;5061722;28;20051;-76
2024/01/25 05:02:50;;;;;;;8.23;1.80;;;;;;;;;;5063082;28;20028;-76
2024/01/25 05:05:16;;;;;;;8.70;1.83;;;;;;;;;;5067944;28;20052;-76
2024/01/25 05:07:42;;;;;;;12.88;1.98;;;;;;;;;;5065992;28;20058;-76
2024/01/25 05:10:08;;;;;;;11.10;1.98;;;;;;;;;;5074587;28;20078;-75
2024/01/25 05:12:34;;;;;;;11.27;2.10;;;;;;;;;;5073903;28;20037;-76
2024/01/25 05:15:01;;;;;;;8.02;2.08;;;;;;;;;;5074315;28;20043;-75
2024/01/25 05:17:27;;;;;;;13.43;2.05;;;;;;;;;;5073613;28;20070;-75
2024/01/25 05:19:53;;;;;;;7.38;1.80;;;;;;;;;;5074028;28;20028;-76
2024/01/25 05:22:21;;;;;;;12.25;1.88;;;;;;;;;;5073807;28;20050;-76
2024/01/25 05:24:48;;;;;;;7.10;1.67;;;;;;;;;;5073952;28;20020;-76
2024/01/25 05:27:14;;;;;;;15.00;1.80;;;;;;;;;;5074182;28;20020;-76
2024/01/25 05:29:40;;;;;;;4.80;1.27;;;;;;;;;;5068782;28;20025;-74
2024/01/25 05:32:07;;;;;;;6.97;1.20;;;;;;;;;;5073836;28;20395;-76
2024/01/25 05:34:33;;;;;;;6.20;1.70;;;;;;;;;;5074067;28;20086;-77
2024/01/25 05:36:59;;;;;;;6.72;1.50;;;;;;;;;;5073642;28;20123;-77
2024/01/25 05:39:25;;;;;;;12.18;2.13;;;;;;;;;;5072976;28;20125;-75
2024/01/25 05:41:52;;;;;;;6.95;1.45;;;;;;;;;;5074128;28;20032;-75
2024/01/25 05:44:18;;;;;;;7.63;1.27;;;;;;;;;;5072523;28;20167;-76
2024/01/25 05:46:44;;;;;;;8.10;1.88;;;;;;;;;;5066530;28;20108;-76
2024/01/25 05:49:10;;;;;;;11.32;1.63;;;;;;;;;;5071960;28;20111;-77
2024/01/25 05:51:36;;;;;;;10.30;1.48;;;;;;;;;;5071159;28;20024;-76
2024/01/25 05:54:02;;;;;;;9.82;1.50;;;;;;;;;;5071807;28;20024;-76
2024/01/25 05:56:28;;;;;;;8.50;1.70;;;;;;;;;;5073369;28;20172;-75
2024/01/25 05:58:55;;;;;;;12.60;2.13;;;;;;;;;;5072020;28;20099;-77
2024/01/25 06:01:21;;;;;;;5.05;1.80;;;;;;;;;;5074960;28;20126;-76
2024/01/25 06:03:47;;;;;;;6.20;1.25;;;;;;;;;;5075062;28;20040;-75
2024/01/25 06:06:13;;;;;;;10.10;2.40;;;;;;;;;;5080712;28;20029;-76
2024/01/25 06:08:39;;;;;;;11.40;1.92;;;;;;;;;;5076718;28;20028;-73
2024/01/25 06:11:05;;;;;;;8.50;1.92;;;;;;;;;;5085294;28;20013;-75
2024/01/25 06:13:32;;;;;;;8.95;1.95;;;;;;;;;;5077322;28;20025;-75
2024/01/25 06:15:58;;;;;;;12.38;2.25;;;;;;;;;;5083463;28;20044;-76
2024/01/25 06:18:24;;;;;;;11.80;1.75;;;;;;;;;;5070821;28;20032;-77
2024/01/25 06:20:51;;;;;;;10.32;1.85;;;;;;;;;;5081123;28;20075;-76
2024/01/25 06:23:17;;;;;;;10.55;1.70;;;;;;;;;;5082599;28;20082;-74
2024/01/25 06:25:43;;;;;;;13.55;1.75;;;;;;;;;;5081744;28;20037;-75
2024/01/25 06:28:09;;;;;;;8.07;1.88;;;;;;;;;;5076271;28;20027;-76
2024/01/25 06:30:35;;;;;;;14.13;1.70;;;;;;;;;;5074918;28;20035;-78
2024/01/25 06:33:02;;;;;;;12.68;2.55;;;;;;;;;;5076670;28;20491;-77
2024/01/25 06:35:28;;;;;;;13.30;2.00;;;;;;;;;;5084203;28;20032;-75
2024/01/25 06:37:54;;;;;;;7.95;1.70;;;;;;;;;;5084885;28;20032;-74
2024/01/25 06:40:30;;;;;;;10.95;1.85;;;;;;;;;;5085275;28;20028;-77
2024/01/25 06:42:57;;;;;;;11.73;1.85;;;;;;;;;;5083309;28;20028;-74
2024/01/25 06:45:23;;;;;;;13.00;2.35;;;;;;;;;;5081934;28;20038;-75
2024/01/25 06:47:49;;;;;;;9.07;1.58;;;;;;;;;;5078155;28;20041;-75
2024/01/25 06:50:15;;;;;;;12.35;2.72;;;;;;;;;;5067990;28;20023;-77
2024/01/25 06:52:41;;;;;;;11.05;2.22;;;;;;;;;;5077582;28;20437;-77
2024/01/25 06:55:08;;;;;;;10.88;2.25;;;;;;;;;;5077884;28;20134;-76
2024/01/25 06:57:34;;;;;;;16.05;3.40;;;;;;;;;;5076278;28;20021;-75
2024/01/25 07:00:00;;;;;;;13.02;3.00;;;;;;;;;;5083946;28;20017;-75
2024/01/25 07:02:26;;;;;;;10.60;3.17;;;;;;;;;;5078078;28;20184;-77
2024/01/25 07:04:53;;;;;;;11.05;3.40;;;;;;;;;;5084153;28;20063;-77
2024/01/25 07:07:20;;;;;;;14.38;3.05;;;;;;;;;;5076305;28;20108;-76
2024/01/25 07:09:49;;;;;;;15.30;3.70;;;;;;;;;;5078562;28;20028;-77
2024/01/25 07:12:15;;;;;;;8.10;3.03;;;;;;;;;;5080283;28;20066;-76
2024/01/25 07:14:41;;;;;;;14.13;3.00;;;;;;;;;;5076960;28;20448;-76
2024/01/25 07:17:07;;;;;;;16.33;2.40;;;;;;;;;;5075048;28;20123;-76
2024/01/25 07:19:34;;;;;;;9.30;2.05;;;;;;;;;;5074255;28;20052;-77
2024/01/25 07:22:00;;;;;;;9.98;1.95;;;;;;;;;;5068457;28;20086;-76
2024/01/25 07:24:26;;;;;;;15.07;2.17;;;;;;;;;;5077562;28;20044;-75
2024/01/25 07:26:53;;;;;;;10.13;2.10;;;;;;;;;;5075887;28;20028;-77
2024/01/25 07:29:19;;;;;;;10.52;2.15;;;;;;;;;;5083106;28;20052;-78
2024/01/25 07:31:45;;;;;;;8.60;2.00;;;;;;;;;;5080786;28;20024;-78
2024/01/25 07:34:11;;;;;;;7.28;1.92;;;;;;;;;;5080393;28;20021;-76
2024/01/25 07:36:37;;;;;;;8.63;2.10;;;;;;;;;;5080263;28;20039;-77
2024/01/25 07:39:03;;;;;;;9.00;2.78;;;;;;;;;;5077109;28;20036;-76
2024/01/25 07:41:29;;;;;;;11.20;2.63;;;;;;;;;;5095119;28;20084;-77
2024/01/25 07:43:56;;;;;;;8.23;2.30;;;;;;;;;;5093028;28;20028;-76
2024/01/25 07:46:24;;;;;;;7.18;2.47;;;;;;;;;;5088623;28;20036;-74
2024/01/25 07:48:50;;;;;;;10.18;1.98;;;;;;;;;;5086259;28;20025;-76
2024/01/25 07:51:16;;;;;;;11.40;1.92;;;;;;;;;;5093913;28;20015;-75
2024/01/25 07:53:42;;;;;;;9.65;2.30;;;;;;;;;;5091548;28;20070;-76
2024/01/25 07:56:10;;;;;;;8.13;1.90;;;;;;;;;;5095791;28;20024;-75
2024/01/25 07:58:37;;;;;;;12.50;3.30;;;;;;;;;;5086889;28;20028;-77
2024/01/25 08:01:06;;;;;;;9.00;2.35;;;;;;;;;;5080813;28;20062;-76
2024/01/25 08:03:33;;;;;;;7.32;2.42;;;;;;;;;;5080013;28;20028;-77
2024/01/25 08:06:02;;;;;;;10.32;3.35;;;;;;;;;;5078508;28;20052;-76
2024/01/25 08:08:31;;;;;;;10.38;2.30;;;;;;;;;;5069206;28;20028;-77
2024/01/25 08:10:58;;;;;;;15.35;2.63;;;;;;;;;;5075517;28;20047;-77
2024/01/25 08:13:24;;;;;;;8.27;2.30;;;;;;;;;;5074487;28;20032;-77
2024/01/25 08:15:50;;;;;;;4.93;1.63;;;;;;;;;;5083888;28;20028;-76
2024/01/25 08:18:18;;;;;;;9.85;2.53;;;;;;;;;;5075104;28;20046;-77
2024/01/25 08:20:52;;;;;;;9.93;2.00;;;;;;;;;;5076835;28;20120;-78
2024/01/25 08:23:18;;;;;;;13.00;3.08;;;;;;;;;;5077338;28;20040;-77
2024/01/25 08:25:45;;;;;;;13.05;2.88;;;;;;;;;;5063603;28;20543;-77
2024/01/25 08:28:11;;;;;;;10.30;2.42;;;;;;;;;;5072054;28;20128;-77
2024/01/25 08:30:37;;;;;;;8.23;2.53;;;;;;;;;;5070682;28;20032;-77
2024/01/25 08:33:03;;;;;;;16.75;3.50;;;;;;;;;;5075321;28;20092;-77
2024/01/25 08:35:33;;;;;;;8.30;1.88;;;;;;;;;;5075649;28;20024;-76
2024/01/25 08:37:59;;;;;;;12.80;3.08;;;;;;;;;;5084869;28;20052;-77
2024/01/25 08:40:25;;;;;;;16.15;3.15;;;;;;;;;;5093806;28;20036;-76
2024/01/25 08:42:51;;;;;;;12.45;2.35;;;;;;;;;;5099193;28;20020;-76
2024/01/25 08:45:17;;;;;;;15.65;3.15;;;;;;;;;;5089687;28;20044;-77
2024/01/25 08:47:46;;;;;;;9.18;2.20;;;;;;;;;;5087834;28;20068;-77
2024/01/25 08:50:13;;;;;;;7.28;2.20;;;;;;;;;;5069063;28;20434;-77
2024/01/25 08:52:40;;;;;;;7.57;1.90;;;;;;;;;;5080362;28;20031;-77
2024/01/25 08:55:07;;;;;;;9.85;1.98;;;;;;;;;;5070827;28;20115;-77
2024/01/25 08:57:33;;;;;;;11.60;2.65;;;;;;;;;;5069805;28;20032;-78
2024/01/25 09:00:00;;;;;;;11.60;2.50;;;;;;;;;;5076923;28;20016;-77
2024/01/25 09:02:27;;;;;;;16.02;3.33;;;;;;;;;;5070820;28;20021;-77
2024/01/25 09:04:53;;;;;;;13.10;2.60;;;;;;;;;;5064471;28;20028;-77
2024/01/25 09:07:20;;;;;;;14.32;2.55;;;;;;;;;;5075977;28;20438;-77
2024/01/25 09:09:46;;;;;;;12.32;2.90;;;;;;;;;;5076649;28;20048;-77
2024/01/25 09:12:14;;;;;;;11.77;3.03;;;;;;;;;;5076790;28;20101;-77
2024/01/25 09:14:40;;;;;;;9.30;2.60;;;;;;;;;;5065433;28;20024;-77
2024/01/25 09:17:06;;;;;;;10.23;2.35;;;;;;;;;;5076769;28;20061;-76
2024/01/25 09:19:32;;;;;;;12.55;3.28;;;;;;;;;;5075926;28;20056;-77
2024/01/25 09:22:04;;;;;;;16.20;3.30;;;;;;;;;;5075056;28;20056;-77
2024/01/25 09:24:30;;;;;;;24.23;4.10;;;;;;;;;;5075201;28;20021;-79
2024/01/25 09:26:59;;;;;;;13.65;2.47;;;;;;;;;;5077509;28;20538;-78
2024/01/25 09:29:27;;;;;;;17.35;3.30;;;;;;;;;;5059213;28;20036;-78
2024/01/25 09:31:54;;;;;;;12.02;3.08;;;;;;;;;;5075141;28;20434;-78
2024/01/25 09:34:21;;;;;;;12.52;3.25;;;;;;;;;;5076710;28;20033;-77
2024/01/25 09:36:47;;;;;;;10.95;3.22;;;;;;;;;;5075617;28;20027;-78
2024/01/25 09:39:16;;;;;;;20.33;3.38;;;;;;;;;;5072738;28;20490;-78
2024/01/25 09:41:42;;;;;;;12.32;3.13;;;;;;;;;;5074134;28;20032;-76
2024/01/25 09:44:09;;;;;;;15.45;3.58;;;;;;;;;;5079192;28;20291;-78
2024/01/25 09:46:35;;;;;;;20.45;3.45;;;;;;;;;;5079023;28;20060;-78
2024/01/25 09:49:02;;;;;;;11.95;2.90;;;;;;;;;;5081168;28;20085;-78
2024/01/25 09:51:33;;;;;;;8.95;2.45;;;;;;;;;;5090321;28;20024;-77
2024/01/25 09:54:00;;;;;;;12.70;2.97;;;;;;;;;;5080756;28;20021;-76
2024/01/25 09:56:27;;;;;;;12.07;2.65;;;;;;;;;;5078018;28;20080;-77
2024/01/25 09:58:53;;;;;;;11.48;2.95;;;;;;;;;;5078235;28;20028;-77
2024/01/25 10:01:19;;;;;;;12.13;2.60;;;;;;;;;;5079169;28;20487;-76
2024/01/25 10:03:46;;;;;;;10.65;2.97;;;;;;;;;;5069349;28;20491;-76
2024/01/25 10:06:12;;;;;;;13.30;3.78;;;;;;;;;;5074640;28;20043;-76
2024/01/25 10:08:39;;;;;;;14.45;2.92;;;;;;;;;;5077579;28;20043;-77
2024/01/25 10:11:05;;;;;;;15.98;2.95;;;;;;;;;;5084302;28;20483;-75
2024/01/25 10:13:31;;;;;;;7.93;2.33;;;;;;;;;;5077851;28;20108;-76
2024/01/25 10:15:58;;;;;;;12.48;2.90;;;;;;;;;;5073902;28;20036;-75
2024/01/25 10:18:25;;;;;;;11.13;3.08;;;;;;;;;;5077341;28;20054;-75
2024/01/25 10:20:52;;;;;;;13.57;3.40;;;;;;;;;;5077744;28;20399;-76
2024/01/25 10:23:18;;;;;;;11.35;3.05;;;;;;;;;;5078486;28;20640;-75
2024/01/25 10:25:44;;;;;;;10.43;2.72;;;;;;;;;;5076441;28;20081;-77
2024/01/25 10:28:11;;;;;;;14.55;3.25;;;;;;;;;;5084348;28;20020;-77
2024/01/25 10:30:37;;;;;;;10.13;3.20;;;;;;;;;;5079616;28;20025;-77
2024/01/25 10:33:04;;;;;;;9.35;2.47;;;;;;;;;;5079595;28;20179;-76
2024/01/25 10:35:31;;;;;;;10.02;2.35;;;;;;;;;;5079899;28;20020;-77
2024/01/25 10:37:59;;;;;;;14.43;2.53;;;;;;;;;;5063014;28;20035;-78
2024/01/25 10:40:27;;;;;;;13.90;2.97;;;;;;;;;;5077881;28;20050;-77
2024/01/25 10:42:53;;;;;;;9.68;2.35;;;;;;;;;;5077003;28;20365;-77
2024/01/25 10:45:20;;;;;;;14.90;2.78;;;;;;;;;;5077349;28;20033;-77
2024/01/25 10:47:48;;;;;;;17.90;3.88;;;;;;;;;;5078903;28;20017;-76
2024/01/25 10:50:15;;;;;;;13.80;2.83;;;;;;;;;;5080133;28;20036;-77
2024/01/25 10:52:42;;;;;;;12.82;3.33;;;;;;;;;;5083814;28;20048;-77
2024/01/25 10:55:08;;;;;;;15.32;3.40;;;;;;;;;;5083335;28;20116;-76
2024/01/25 10:57:38;;;;;;;13.00;2.42;;;;;;;;;;5085321;28;20020;-76
2024/01/25 11:00:09;;;;;;;16.67;3.50;;;;;;;;;;5088324;28;20069;-77
2024/01/25 11:02:36;;;;;;;11.30;2.63;;;;;;;;;;5084951;28;20493;-77
2024/01/25 11:05:03;;;;;;;13.63;3.42;;;;;;;;;;5078226;28;20025;-77
2024/01/25 11:07:30;;;;;;;11.68;2.65;;;;;;;;;;5080722;28;20024;-77
2024/01/25 11:09:57;;;;;;;14.07;2.50;;;;;;;;;;5079536;28;20085;-77
2024/01/25 11:12:23;;;;;;;13.25;2.88;;;;;;;;;;5071092;28;20088;-76
2024/01/25 11:14:55;;;;;;;12.65;2.80;;;;;;;;;;5069670;28;20075;-76
2024/01/25 11:17:40;;;;;;;13.65;2.80;;;;;;;;;;5075456;28;20115;-77
2024/01/25 11:20:13;;;;;;;11.73;2.83;;;;;;;;;;5082137;28;20025;-77
2024/01/25 11:22:45;;;;;;;12.77;2.25;;;;;;;;;;5092088;28;20386;-77
2024/01/25 11:25:19;;;;;;;16.97;2.90;;;;;;;;;;5096782;28;20036;-78
2024/01/25 11:27:45;;;;;;;12.40;2.40;;;;;;;;;;5078247;28;20025;-77
2024/01/25 11:30:13;;;;;;;15.52;3.08;;;;;;;;;;5064915;28;20075;-76
2024/01/25 11:32:40;;;;;;;15.63;3.55;;;;;;;;;;5072285;28;20471;-77
2024/01/25 11:35:11;;;;;;;11.10;3.20;;;;;;;;;;5075469;28;20091;-77
2024/01/25 11:37:37;;;;;;;8.43;2.55;;;;;;;;;;5077483;28;20032;-77
2024/01/25 11:40:03;;;;;;;11.75;4.15;;;;;;;;;;5075334;28;20025;-76
2024/01/25 11:42:30;;;;;;;19.20;5.50;;;;;;;;;;5071416;28;20050;-77
2024/01/25 11:44:57;;;;;;;14.02;3.47;;;;;;;;;;5077227;28;20032;-77
2024/01/25 11:47:23;;;;;;;9.10;3.03;;;;;;;;;;5076980;28;20033;-77
2024/01/25 11:49:49;;;;;;;12.02;3.58;;;;;;;;;;5067902;28;20036;-77
2024/01/25 11:52:16;;;;;;;6.70;2.20;;;;;;;;;;5066352;28;20051;-77
2024/01/25 11:54:42;;;;;;;11.43;2.22;;;;;;;;;;5072122;28;20020;-78
2024/01/25 11:57:08;;;;;;;10.27;2.47;;;;;;;;;;5077334;28;20065;-77
2024/01/25 11:59:35;;;;;;;7.63;2.40;;;;;;;;;;5083252;28;20484;-78
2024/01/25 12:02:01;;;;;;;10.98;2.38;;;;;;;;;;5072237;28;20055;-78
2024/01/25 12:04:27;;;;;;;11.98;2.70;;;;;;;;;;5075709;28;20111;-77
2024/01/25 12:06:54;;;;;;;11.40;2.88;;;;;;;;;;5077354;28;20103;-77
2024/01/25 12:09:20;;;;;;;4.53;1.55;;;;;;;;;;5085511;28;20479;-77
2024/01/25 12:11:50;;;;;;;7.30;2.00;;;;;;;;;;5076606;28;20042;-76
2024/01/25 12:14:17;;;;;;;10.60;2.25;;;;;;;;;;5068363;28;20102;-76
2024/01/25 12:16:43;;;;;;;6.97;2.05;;;;;;;;;;5077024;28;20028;-77
2024/01/25 12:19:09;;;;;;;6.93;2.05;;;;;;;;;;5077671;28;20029;-76
2024/01/25 12:21:36;;;;;;;6.82;1.75;;;;;;;;;;5076449;28;20052;-77
2024/01/25 12:24:03;;;;;;;9.50;1.90;;;;;;;;;;5077017;28;20048;-76
2024/01/25 12:26:29;;;;;;;10.07;2.63;;;;;;;;;;5078112;28;20097;-77
2024/01/25 12:28:55;;;;;;;5.13;1.30;;;;;;;;;;5068640;28;20017;-76
2024/01/25 12:31:21;;;;;;;9.25;2.45;;;;;;;;;;5077492;28;20042;-74
2024/01/25 12:33:47;;;;;;;11.82;2.35;;;;;;;;;;5078396;28;20468;-76
2024/01/25 12:36:13;;;;;;;8.02;2.03;;;;;;;;;;5080248;28;20013;-77
2024/01/25 12:38:40;;;;;;;13.68;2.88;;;;;;;;;;5080069;28;20028;-76
2024/01/25 12:41:06;;;;;;;12.95;2.63;;;;;;;;;;5078178;28;20025;-77
2024/01/25 12:43:32;;;;;;;5.50;1.80;;;;;;;;;;5076760;28;20036;-76
2024/01/25 12:45:58;;;;;;;8.38;2.40;;;;;;;;;;5076922;28;20153;-77
2024/01/25 12:48:26;;;;;;;7.47;2.00;;;;;;;;;;5077780;28;20020;-77
2024/01/25 12:50:52;;;;;;;11.35;2.40;;;;;;;;;;5077098;28;20018;-75
2024/01/25 12:53:18;;;;;;;12.43;2.97;;;;;;;;;;5076254;28;20024;-76
2024/01/25 12:55:44;;;;;;;11.65;1.80;;;;;;;;;;5094552;28;20037;-74
2024/01/25 12:58:11;;;;;;;8.00;1.83;;;;;;;;;;5075104;28;20052;-76
2024/01/25 13:00:39;;;;;;;11.55;2.80;;;;;;;;;;5088749;28;20029;-76
2024/01/25 13:03:06;;;;;;;10.10;2.33;;;;;;;;;;5076704;28;20567;-76
2024/01/25 13:05:34;;;;;;;11.25;2.67;;;;;;;;;;5068776;28;20463;-77
2024/01/25 13:08:03;;;;;;;14.30;2.40;;;;;;;;;;5084740;28;20115;-77
2024/01/25 13:10:29;;;;;;;7.32;1.90;;;;;;;;;;5070348;28;20024;-74
2024/01/25 13:12:55;;;;;;;9.88;2.28;;;;;;;;;;5075774;28;20020;-76
2024/01/25 13:15:21;;;;;;;6.07;1.45;;;;;;;;;;5057792;28;20025;-76
2024/01/25 13:17:48;;;;;;;7.82;1.98;;;;;;;;;;5074451;28;20095;-75
2024/01/25 13:20:15;;;;;;;10.45;1.73;;;;;;;;;;5084307;28;20046;-76
2024/01/25 13:22:41;;;;;;;8.48;1.98;;;;;;;;;;5081673;28;20013;-75
2024/01/25 13:25:10;;;;;;;11.38;3.55;;;;;;;;;;5083482;28;20115;-77
2024/01/25 13:27:36;;;;;;;9.35;2.47;;;;;;;;;;5083486;28;20096;-77
2024/01/25 13:30:05;;;;;;;11.40;3.60;;;;;;;;;;5074029;28;20029;-75
2024/01/25 13:32:31;;;;;;;18.13;4.90;;;;;;;;;;5090111;28;20035;-75
2024/01/25 13:34:58;;;;;;;19.83;6.10;;;;;;;;;;5092668;28;20053;-76
2024/01/25 13:37:28;;;;;;;13.68;5.13;;;;;;;;;;5092280;28;20021;-75
2024/01/25 13:39:54;;;;;;;13.30;4.22;;;;;;;;;;5092863;28;20096;-75
2024/01/25 13:42:20;;;;;;;12.77;3.47;;;;;;;;;;5091775;28;20070;-75
2024/01/25 13:44:47;;;;;;;11.00;3.17;;;;;;;;;;5090953;28;20056;-74
2024/01/25 13:47:13;;;;;;;6.85;2.13;;;;;;;;;;5090926;28;20085;-75
2024/01/25 13:49:39;;;;;;;11.82;2.53;;;;;;;;;;5092388;28;20029;-77
2024/01/25 13:52:05;;;;;;;8.55;2.20;;;;;;;;;;5091721;28;20035;-76
2024/01/25 13:54:31;;;;;;;10.82;2.42;;;;;;;;;;5083330;28;20029;-76
2024/01/25 13:56:57;;;;;;;9.73;1.73;;;;;;;;;;5081098;28;20041;-76
2024/01/25 13:59:25;;;;;;;6.22;1.60;;;;;;;;;;5081170;28;20025;-77
2024/01/25 14:01:52;;;;;;;6.22;1.42;;;;;;;;;;5081893;28;20043;-76
2024/01/25 14:04:18;;;;;;;10.90;2.03;;;;;;;;;;5086785;28;20038;-76
2024/01/25 14:06:44;;;;;;;6.30;1.92;;;;;;;;;;5082989;28;20039;-76
2024/01/25 14:09:10;;;;;;;7.18;1.60;;;;;;;;;;5076334;28;20050;-76
2024/01/25 14:11:36;;;;;;;8.38;1.80;;;;;;;;;;5081719;28;20364;-77
2024/01/25 14:14:02;;;;;;;6.55;2.00;;;;;;;;;;5075982;28;20103;-76
2024/01/25 14:16:28;;;;;;;9.57;1.92;;;;;;;;;;5074764;28;20020;-78
2024/01/25 14:18:55;;;;;;;5.90;1.83;;;;;;;;;;5075345;28;20437;-76
2024/01/25 14:21:21;;;;;;;7.50;1.77;;;;;;;;;;5075413;28;20028;-76
2024/01/25 14:23:47;;;;;;;7.47;1.83;;;;;;;;;;5075448;28;20480;-76
2024/01/25 14:26:13;;;;;;;5.65;1.40;;;;;;;;;;5073307;28;20040;-76
2024/01/25 14:28:39;;;;;;;10.93;2.00;;;;;;;;;;5072557;28;20391;-74
2024/01/25 14:31:05;;;;;;;9.07;2.17;;;;;;;;;;5076991;28;20074;-77
2024/01/25 14:33:32;;;;;;;8.57;1.88;;;;;;;;;;5076421;28;20025;-76
2024/01/25 14:35:58;;;;;;;8.77;2.10;;;;;;;;;;5078077;28;20476;-76